Time;durP1;ratioP1;P1;durP2;ratioP2;P2;SDS_P1;SDS_P2;PMS_P1;PMS_P2;Temp;Humidity;BMP_temperature;BMP_pressure;BME280_temperature;BME280_humidity;BME280_pressure;Samples;Min_cycle;Max_cycle;Signal;HPM_P1;HPM_P2
2022/06/29 00:02:09;;;;;;;9.25;3.47;;;24.00;77.00;;;;;;4667856;30;20125;-86
2022/06/29 00:04:49;;;;;;;5.88;3.28;;;23.80;76.80;;;;;;4652519;30;20030;-88
2022/06/29 00:07:24;;;;;;;5.82;3.03;;;23.80;77.20;;;;;;4678997;30;20221;-87
2022/06/29 00:09:57;;;;;;;7.40;3.60;;;23.80;77.20;;;;;;4680573;30;20038;-85
2022/06/29 00:12:24;;;;;;;7.10;3.25;;;;;;;;;;4682215;30;20046;-84
2022/06/29 00:14:50;;;;;;;7.93;3.30;;;;;;;;;;4673344;25;20230;-85
2022/06/29 00:17:25;;;;;;;6.38;3.05;;;23.70;76.30;;;;;;4686910;30;20049;-84
2022/06/29 00:19:57;;;;;;;5.88;2.92;;;23.70;78.10;;;;;;4671675;30;20033;-85
2022/06/29 00:22:42;;;;;;;5.47;3.03;;;23.90;77.80;;;;;;4687237;30;20041;-86
2022/06/29 00:25:09;;;;;;;7.68;3.40;;;23.60;76.90;;;;;;4683190;25;20063;-83
2022/06/29 00:27:35;;;;;;;6.55;3.30;;;23.60;77.80;;;;;;4657816;25;20065;-84
2022/06/29 00:30:11;;;;;;;6.88;3.88;;;23.60;77.40;;;;;;4681144;25;20090;-86
2022/06/29 00:32:41;;;;;;;6.30;3.42;;;23.50;78.00;;;;;;4617462;30;20277;-86
2022/06/29 00:35:25;;;;;;;6.40;3.38;;;23.60;78.30;;;;;;4617098;30;20027;-84
2022/06/29 00:37:57;;;;;;;9.50;3.80;;;24.30;78.40;;;;;;4615626;31;20042;-86
2022/06/29 00:40:22;;;;;;;7.57;3.70;;;23.50;78.60;;;;;;4615245;31;20335;-83
2022/06/29 00:42:48;;;;;;;5.40;3.08;;;23.50;78.60;;;;;;4616908;30;20063;-86
2022/06/29 00:47:55;;;;;;;7.22;3.10;;;23.40;79.50;;;;;;4674723;25;20547;-85
2022/06/29 00:50:30;;;;;;;6.60;3.42;;;23.30;79.90;;;;;;4709637;25;20637;-85
2022/06/29 00:53:23;;;;;;;8.07;3.85;;;23.30;80.20;;;;;;4651547;30;20725;-84
2022/06/29 00:56:24;;;;;;;6.88;3.60;;;24.50;81.70;;;;;;4667226;30;20160;-85
2022/06/29 00:58:59;;;;;;;6.13;3.33;;;23.20;80.90;;;;;;4651451;30;20057;-86
2022/06/29 01:01:26;;;;;;;9.40;3.22;;;23.20;80.70;;;;;;4666789;30;20029;-82
2022/06/29 01:03:55;;;;;;;7.18;3.58;;;23.10;81.30;;;;;;4651488;30;20276;-85
2022/06/29 01:06:33;;;;;;;9.00;4.15;;;23.20;82.00;;;;;;4667007;30;20448;-85
2022/06/29 01:08:59;;;;;;;7.38;3.78;;;;;;;;;;4667683;30;20375;-84
2022/06/29 01:11:49;;;;;;;7.38;3.63;;;23.00;82.20;;;;;;4670228;30;20251;-85
2022/06/29 01:14:15;;;;;;;11.32;3.60;;;24.20;83.80;;;;;;4654339;25;20085;-83
2022/06/29 01:16:44;;;;;;;8.60;3.53;;;22.90;82.90;;;;;;4689772;25;20121;-85
2022/06/29 01:19:10;;;;;;;7.38;3.92;;;22.90;84.80;;;;;;4655088;30;20606;-85
2022/06/29 01:21:43;;;;;;;7.53;3.17;;;23.00;83.90;;;;;;4670415;30;20041;-86
2022/06/29 01:24:08;;;;;;;6.32;3.35;;;23.00;84.10;;;;;;4654945;30;20166;-85
2022/06/29 01:26:34;;;;;;;7.28;3.33;;;22.90;84.80;;;;;;4803672;25;20057;-85
2022/06/29 01:29:00;;;;;;;8.88;3.17;;;22.90;84.90;;;;;;4669846;30;20312;-83
2022/06/29 01:31:26;;;;;;;9.85;3.40;;;22.80;85.20;;;;;;4654337;30;20129;-83
2022/06/29 01:33:54;;;;;;;6.18;3.20;;;22.90;85.60;;;;;;4670297;30;20439;-85
2022/06/29 01:36:24;;;;;;;8.90;3.78;;;22.80;86.40;;;;;;4670187;30;20030;-82
2022/06/29 01:38:50;;;;;;;7.15;3.55;;;22.70;86.30;;;;;;4654544;30;20747;-84
2022/06/29 01:41:35;;;;;;;9.95;3.45;;;22.70;86.40;;;;;;4670098;30;20057;-83
2022/06/29 01:44:01;;;;;;;6.68;3.42;;;;;;;;;;4670110;30;20125;-85
2022/06/29 01:46:27;;;;;;;7.63;3.83;;;22.70;86.70;;;;;;4654220;30;20092;-82
2022/06/29 01:48:56;;;;;;;6.60;3.63;;;22.70;87.30;;;;;;4670303;30;20512;-84
2022/06/29 01:51:34;;;;;;;7.28;4.22;;;22.70;87.60;;;;;;4654515;30;20310;-85
2022/06/29 01:57:05;;;;;;;7.70;3.88;;;23.60;88.80;;;;;;4681646;25;20520;-83
2022/06/29 01:59:40;;;;;;;6.93;3.67;;;23.00;89.70;;;;;;4618454;30;20201;-83
2022/06/29 02:02:09;;;;;;;8.35;3.83;;;22.50;89.00;;;;;;4632788;30;20039;-86
2022/06/29 02:04:48;;;;;;;7.90;3.42;;;22.50;90.10;;;;;;4620962;30;20061;-86
2022/06/29 02:07:14;;;;;;;7.43;3.10;;;22.50;89.90;;;;;;4619677;30;20039;-84
2022/06/29 02:09:55;;;;;;;6.40;3.40;;;22.50;90.00;;;;;;4620095;30;20053;-85
2022/06/29 02:12:21;;;;;;;8.35;3.90;;;19.80;88.80;;;;;;4633405;30;20046;-84
2022/06/29 02:14:46;;;;;;;6.43;3.58;;;22.40;90.10;;;;;;4632790;30;20506;-83
2022/06/29 02:17:13;;;;;;;5.80;3.40;;;22.40;90.40;;;;;;4632337;30;20053;-85
2022/06/29 02:19:39;;;;;;;7.53;3.75;;;22.30;90.60;;;;;;4618550;30;20035;-86
2022/06/29 02:22:05;;;;;;;7.70;3.72;;;22.30;90.70;;;;;;4632267;30;20034;-84
2022/06/29 02:24:31;;;;;;;6.80;3.42;;;22.20;91.10;;;;;;4632520;30;20070;-86
2022/06/29 02:26:57;;;;;;;8.02;4.10;;;22.10;91.20;;;;;;4618161;30;20058;-83
2022/06/29 02:29:40;;;;;;;7.55;3.45;;;21.70;91.10;;;;;;4632844;30;20034;-86
2022/06/29 02:34:51;;;;;;;6.57;3.70;;;22.00;91.70;;;;;;4669748;30;20063;-84
2022/06/29 02:37:17;;;;;;;6.22;3.53;;;22.00;91.90;;;;;;4653698;30;20034;-86
2022/06/29 02:39:43;;;;;;;6.15;3.40;;;21.90;92.00;;;;;;4669400;30;20066;-84
2022/06/29 02:42:13;;;;;;;6.75;3.42;;;21.90;92.10;;;;;;4669077;30;20038;-83
2022/06/29 02:44:39;;;;;;;7.70;3.80;;;21.80;92.30;;;;;;4653272;30;20049;-86
2022/06/29 02:47:06;;;;;;;6.78;3.33;;;21.80;92.40;;;;;;4653165;30;20034;-86
2022/06/29 02:49:32;;;;;;;9.18;4.10;;;21.70;92.40;;;;;;4668996;30;20026;-85
2022/06/29 02:51:58;;;;;;;6.85;3.58;;;21.80;92.40;;;;;;4669181;30;20034;-86
2022/06/29 02:54:24;;;;;;;7.78;3.95;;;21.80;92.50;;;;;;4652966;30;20069;-85
2022/06/29 02:56:50;;;;;;;9.00;4.90;;;21.70;92.70;;;;;;4653406;30;20389;-84
2022/06/29 02:59:25;;;;;;;9.90;3.83;;;21.70;92.70;;;;;;4653157;30;20139;-85
2022/06/29 03:01:51;;;;;;;7.88;3.40;;;21.60;92.70;;;;;;4668377;30;20184;-85
2022/06/29 03:04:17;;;;;;;5.57;3.10;;;21.70;92.60;;;;;;4653173;30;20029;-85
2022/06/29 03:06:46;;;;;;;7.63;3.90;;;21.70;92.70;;;;;;4653454;30;20546;-85
2022/06/29 03:09:12;;;;;;;6.68;3.53;;;21.70;92.50;;;;;;4653489;30;20505;-85
2022/06/29 03:11:37;;;;;;;7.43;3.75;;;21.70;92.40;;;;;;4653518;30;20137;-85
2022/06/29 03:14:03;;;;;;;6.82;3.78;;;21.70;92.50;;;;;;4653782;30;20217;-85
2022/06/29 03:16:29;;;;;;;6.47;3.60;;;21.70;92.50;;;;;;4668885;30;20344;-84
2022/06/29 03:18:55;;;;;;;7.97;3.95;;;21.70;92.40;;;;;;4653335;30;20367;-85
2022/06/29 03:21:22;;;;;;;6.75;3.50;;;21.70;92.80;;;;;;4658933;25;20074;-82
2022/06/29 03:23:49;;;;;;;6.25;3.55;;;21.60;92.60;;;;;;4669042;30;20026;-85
2022/06/29 03:26:15;;;;;;;8.65;3.88;;;21.60;92.60;;;;;;4669077;30;20042;-83
2022/06/29 03:28:48;;;;;;;7.05;3.33;;;21.70;92.60;;;;;;4652845;30;20045;-86
2022/06/29 03:31:13;;;;;;;7.32;3.63;;;21.60;92.70;;;;;;4653593;30;20042;-84
2022/06/29 03:33:40;;;;;;;7.07;3.70;;;21.60;92.90;;;;;;4668644;30;20378;-82
2022/06/29 03:36:06;;;;;;;7.93;4.20;;;21.50;93.00;;;;;;4668005;30;20038;-81
2022/06/29 03:38:42;;;;;;;8.13;3.88;;;21.50;93.00;;;;;;4668450;30;20129;-84
2022/06/29 03:41:08;;;;;;;6.63;3.28;;;21.50;93.00;;;;;;4668321;30;20092;-85
2022/06/29 03:43:48;;;;;;;8.48;4.05;;;21.50;92.90;;;;;;4668335;30;20280;-83
2022/06/29 03:46:15;;;;;;;7.22;3.60;;;21.50;93.10;;;;;;4667640;30;20046;-85
2022/06/29 03:48:43;;;;;;;6.55;3.42;;;21.60;92.90;;;;;;4667706;30;20030;-85
2022/06/29 03:51:09;;;;;;;6.45;3.17;;;21.60;92.70;;;;;;4652705;30;20113;-85
2022/06/29 03:53:35;;;;;;;8.95;3.92;;;21.70;92.60;;;;;;4668346;30;20395;-85
2022/06/29 03:56:00;;;;;;;7.97;3.70;;;21.70;92.40;;;;;;4667913;30;20037;-86
2022/06/29 03:58:26;;;;;;;8.38;3.80;;;21.80;92.30;;;;;;4652309;30;20413;-86
2022/06/29 04:00:52;;;;;;;5.22;2.92;;;21.80;92.20;;;;;;4652299;30;20030;-83
2022/06/29 04:03:18;;;;;;;7.85;3.78;;;21.90;92.20;;;;;;4668022;30;20030;-83
2022/06/29 04:05:44;;;;;;;7.53;3.22;;;22.00;92.20;;;;;;4652256;30;20294;-86
2022/06/29 04:08:10;;;;;;;9.35;5.07;;;22.00;92.10;;;;;;4651740;30;20045;-86
2022/06/29 04:10:36;;;;;;;7.38;3.70;;;22.00;92.00;;;;;;4651854;30;20522;-85
2022/06/29 04:13:02;;;;;;;7.65;3.70;;;22.00;91.80;;;;;;4652160;30;20052;-83
2022/06/29 04:15:39;;;;;;;6.53;3.15;;;22.10;91.50;;;;;;4667397;30;20487;-84
2022/06/29 04:18:17;;;;;;;7.18;3.40;;;22.20;91.40;;;;;;4667483;30;20128;-87
2022/06/29 04:26:32;;;;;;;9.07;3.67;;;22.30;91.00;;;;;;4679590;25;20160;-83
2022/06/29 04:34:37;;;;;;;;;;;22.50;91.30;;;;;;4809520;25;20106;-84
2022/06/29 04:37:06;;;;;;;8.45;3.72;;;22.60;91.30;;;;;;4651378;30;19930;-85
2022/06/29 04:39:41;;;;;;;9.45;4.03;;;22.60;90.80;;;;;;4667084;30;20249;-85
2022/06/29 04:42:07;;;;;;;7.55;3.63;;;22.60;90.90;;;;;;4652175;30;20061;-82
2022/06/29 04:44:53;;;;;;;9.40;4.68;;;22.60;91.20;;;;;;4651968;30;20034;-85
2022/06/29 04:47:27;;;;;;;7.40;4.07;;;22.70;91.20;;;;;;4667735;30;20041;-85
2022/06/29 04:49:53;;;;;;;8.27;4.38;;;22.80;91.20;;;;;;4651944;30;20124;-84
2022/06/29 04:52:19;;;;;;;7.65;3.63;;;22.80;91.00;;;;;;4652681;30;20531;-84
2022/06/29 04:54:45;;;;;;;8.48;3.80;;;22.80;90.60;;;;;;4651276;30;20026;-86
2022/06/29 04:57:11;;;;;;;9.10;3.83;;;22.80;90.50;;;;;;4652017;30;20519;-85
2022/06/29 04:59:37;;;;;;;7.82;3.78;;;23.00;90.20;;;;;;4651710;30;20037;-86
2022/06/29 05:02:03;;;;;;;7.22;3.40;;;23.10;90.20;;;;;;4667402;30;20030;-86
2022/06/29 05:04:31;;;;;;;6.70;3.50;;;23.10;89.80;;;;;;4668003;30;20030;-85
2022/06/29 05:06:57;;;;;;;22.27;10.55;;;23.20;89.70;;;;;;4654439;30;20060;-85
2022/06/29 05:09:23;;;;;;;27.95;12.68;;;23.30;88.90;;;;;;4653427;30;20034;-83
2022/06/29 05:11:52;;;;;;;24.73;10.75;;;23.30;88.70;;;;;;4668371;30;20350;-85
2022/06/29 05:14:17;;;;;;;17.50;8.35;;;23.40;87.90;;;;;;4651274;30;20383;-84
2022/06/29 05:16:43;;;;;;;10.35;4.68;;;23.50;87.30;;;;;;4667186;30;20054;-82
2022/06/29 05:19:09;;;;;;;7.38;4.13;;;23.60;86.90;;;;;;4667192;30;20331;-84
2022/06/29 05:21:47;;;;;;;7.82;3.20;;;23.70;86.40;;;;;;4667641;30;20085;-86
2022/06/29 05:24:25;;;;;;;8.20;3.20;;;21.20;84.80;;;;;;4667016;30;20445;-87
2022/06/29 05:26:50;;;;;;;12.60;4.18;;;23.90;85.90;;;;;;4667407;30;20034;-83
2022/06/29 05:29:17;;;;;;;7.88;3.22;;;24.10;85.50;;;;;;4651720;30;20045;-85
2022/06/29 05:31:43;;;;;;;6.85;3.15;;;24.10;85.20;;;;;;4651317;30;20410;-86
2022/06/29 05:34:08;;;;;;;8.90;3.47;;;24.20;84.10;;;;;;4651517;30;20352;-86
2022/06/29 05:36:34;;;;;;;7.63;3.03;;;24.30;84.10;;;;;;4667106;30;20042;-86
2022/06/29 05:39:00;;;;;;;6.43;3.22;;;24.40;83.10;;;;;;4651528;30;20038;-85
2022/06/29 05:41:26;;;;;;;7.25;3.17;;;24.50;82.70;;;;;;4651269;30;20030;-86
2022/06/29 05:43:53;;;;;;;8.88;3.70;;;24.60;82.60;;;;;;4667562;30;20279;-85
2022/06/29 05:46:22;;;;;;;9.32;3.22;;;24.70;81.80;;;;;;4637379;30;20038;-83
2022/06/29 05:48:48;;;;;;;6.28;3.00;;;24.80;81.20;;;;;;4651437;30;20041;-86
2022/06/29 05:51:14;;;;;;;5.25;2.85;;;24.90;80.70;;;;;;4651510;30;20065;-85
2022/06/29 05:53:40;;;;;;;7.93;2.70;;;25.00;80.90;;;;;;4666823;30;20054;-86
2022/06/29 05:56:06;;;;;;;6.15;3.30;;;25.10;80.50;;;;;;4652068;30;20404;-84
2022/06/29 05:58:35;;;;;;;10.70;3.63;;;25.20;79.80;;;;;;4654603;30;20044;-85
2022/06/29 06:01:19;;;;;;;6.38;3.10;;;25.30;79.90;;;;;;4669831;30;20045;-85
2022/06/29 06:03:44;;;;;;;6.13;3.10;;;25.40;79.10;;;;;;4654464;30;20385;-83
2022/06/29 06:06:12;;;;;;;7.70;3.40;;;;;;;;;;4669912;30;20069;-84
2022/06/29 06:08:37;;;;;;;6.80;3.65;;;25.60;77.20;;;;;;4654546;30;20064;-86
2022/06/29 06:11:03;;;;;;;5.35;2.92;;;25.70;76.80;;;;;;4670122;30;20331;-84
2022/06/29 06:13:32;;;;;;;7.03;3.15;;;25.90;76.70;;;;;;4669505;30;20038;-86
2022/06/29 06:16:14;;;;;;;6.60;3.28;;;26.00;76.70;;;;;;4669009;30;20046;-86
2022/06/29 06:18:39;;;;;;;5.57;2.42;;;26.60;76.00;;;;;;4654119;30;20133;-85
2022/06/29 06:21:05;;;;;;;5.43;2.78;;;26.20;74.50;;;;;;4669663;30;20121;-84
2022/06/29 06:23:31;;;;;;;8.38;3.80;;;26.40;74.20;;;;;;4653655;30;20335;-85
2022/06/29 06:25:57;;;;;;;8.13;2.88;;;26.50;73.80;;;;;;4653894;30;20310;-84
2022/06/29 06:28:22;;;;;;;7.97;3.13;;;26.60;73.00;;;;;;4654128;30;20038;-86
2022/06/29 06:30:48;;;;;;;6.30;3.15;;;26.80;71.90;;;;;;4653878;30;20127;-85
2022/06/29 06:33:14;;;;;;;7.20;3.65;;;26.90;71.10;;;;;;4669698;30;20316;-86
2022/06/29 06:35:49;;;;;;;8.10;3.30;;;27.00;70.40;;;;;;4653385;30;20078;-86
2022/06/29 06:38:27;;;;;;;7.43;3.40;;;27.20;69.90;;;;;;4669310;30;20079;-86
2022/06/29 06:43:42;;;;;;;7.10;4.00;;;27.40;69.30;;;;;;4669224;30;20248;-83
2022/06/29 06:46:11;;;;;;;8.88;4.28;;;27.60;68.30;;;;;;4653353;30;20042;-85
2022/06/29 06:48:40;;;;;;;8.93;3.38;;;27.70;68.00;;;;;;4668978;30;20026;-85
2022/06/29 06:51:06;;;;;;;7.53;3.70;;;28.20;67.50;;;;;;4653371;30;20042;-85
2022/06/29 06:53:32;;;;;;;6.15;2.90;;;28.00;67.20;;;;;;4653399;30;20480;-83
2022/06/29 06:56:10;;;;;;;5.85;2.85;;;28.10;67.50;;;;;;4668820;30;20053;-85
2022/06/29 06:58:38;;;;;;;6.05;3.25;;;28.10;66.10;;;;;;4653790;30;20224;-86
2022/06/29 07:01:11;;;;;;;9.38;4.18;;;28.30;65.40;;;;;;4669370;30;20418;-85
2022/06/29 07:03:37;;;;;;;6.30;2.80;;;28.40;65.00;;;;;;4653342;30;20045;-83
2022/06/29 07:06:04;;;;;;;7.15;3.55;;;28.40;63.90;;;;;;4668957;30;20264;-83
2022/06/29 07:08:41;;;;;;;6.40;2.92;;;28.50;63.80;;;;;;4668389;30;20733;-84
2022/06/29 07:11:16;;;;;;;6.28;3.00;;;28.70;63.80;;;;;;4652583;30;20038;-82
2022/06/29 07:13:42;;;;;;;7.03;4.07;;;28.80;64.30;;;;;;4653098;30;20084;-84
2022/06/29 07:16:08;;;;;;;5.80;2.90;;;29.00;62.90;;;;;;4667761;30;20685;-85
2022/06/29 07:18:34;;;;;;;7.53;3.50;;;29.00;62.20;;;;;;4652778;30;20227;-84
2022/06/29 07:21:12;;;;;;;5.75;2.95;;;29.10;62.40;;;;;;4652746;30;20068;-86
2022/06/29 07:23:47;;;;;;;7.60;2.72;;;29.20;62.60;;;;;;4668423;30;20490;-85
2022/06/29 07:26:13;;;;;;;6.05;2.75;;;29.30;61.40;;;;;;4652346;30;20602;-84
2022/06/29 07:28:39;;;;;;;5.95;3.30;;;29.40;61.30;;;;;;4652822;30;20042;-84
2022/06/29 07:31:06;;;;;;;7.85;3.00;;;29.60;61.00;;;;;;4668093;30;20100;-85
2022/06/29 07:33:34;;;;;;;5.32;2.75;;;29.70;61.20;;;;;;4667993;30;20037;-86
2022/06/29 07:36:02;;;;;;;11.23;3.45;;;29.90;60.40;;;;;;4685025;25;20131;-85
2022/06/29 07:38:31;;;;;;;5.55;2.70;;;29.90;60.40;;;;;;4684847;30;20331;-86
2022/06/29 07:40:58;;;;;;;5.32;2.70;;;30.10;59.20;;;;;;4669557;30;20041;-86
2022/06/29 07:43:30;;;;;;;5.30;3.28;;;30.20;59.20;;;;;;4669272;30;20041;-86
2022/06/29 07:45:59;;;;;;;7.95;3.65;;;30.40;59.30;;;;;;4669453;30;20569;-84
2022/06/29 07:48:25;;;;;;;6.63;3.55;;;30.50;58.50;;;;;;4669452;30;20131;-85
2022/06/29 07:50:51;;;;;;;6.80;2.72;;;30.70;58.90;;;;;;4718787;25;20081;-84
2022/06/29 07:53:18;;;;;;;5.15;2.80;;;30.90;58.20;;;;;;4652072;30;20034;-86
2022/06/29 07:55:46;;;;;;;5.70;2.70;;;31.00;57.40;;;;;;4652024;30;20564;-85
2022/06/29 07:58:16;;;;;;;6.55;3.00;;;31.00;57.30;;;;;;4652307;30;20049;-85
2022/06/29 08:00:42;;;;;;;5.05;2.58;;;31.20;57.20;;;;;;4652020;30;20462;-84
2022/06/29 08:03:14;;;;;;;5.75;2.70;;;31.20;56.50;;;;;;4668371;30;20117;-85
2022/06/29 08:05:41;;;;;;;5.83;2.50;;;31.20;56.20;;;;;;4669168;30;20050;-82
2022/06/29 08:08:07;;;;;;;5.63;2.72;;;31.30;56.00;;;;;;4668359;30;20507;-84
2022/06/29 08:10:34;;;;;;;6.43;2.60;;;31.60;56.20;;;;;;4706440;25;20081;-84
2022/06/29 08:13:14;;;;;;;5.68;2.58;;;30.40;54.10;;;;;;4648725;30;20131;-84
2022/06/29 08:15:42;;;;;;;10.20;2.90;;;31.70;55.50;;;;;;4652096;30;20045;-83
2022/06/29 08:18:17;;;;;;;5.43;2.65;;;31.80;55.40;;;;;;4651833;30;20511;-84
2022/06/29 08:21:01;;;;;;;5.13;2.47;;;31.90;55.20;;;;;;4652209;30;20494;-84
2022/06/29 08:23:27;;;;;;;7.35;2.50;;;33.10;54.70;;;;;;4780897;25;20089;-85
2022/06/29 08:26:11;;;;;;;6.70;3.25;;;32.60;55.10;;;;;;4666330;25;20066;-87
2022/06/29 08:28:40;;;;;;;7.95;2.55;;;33.00;53.80;;;;;;4666567;25;20058;-87
2022/06/29 08:31:06;;;;;;;8.82;2.72;;;32.90;53.40;;;;;;4651095;30;20338;-85
2022/06/29 08:34:12;;;;;;;5.20;2.75;;;32.90;53.10;;;;;;4652435;30;20037;-86
2022/06/29 08:36:37;;;;;;;10.15;2.95;;;33.10;52.10;;;;;;4614007;31;20504;-84
2022/06/29 08:39:18;;;;;;;8.38;3.75;;;33.10;52.80;;;;;;4631808;25;20257;-84
2022/06/29 08:42:01;;;;;;;7.05;3.03;;;33.30;52.70;;;;;;4667112;30;20095;-85
2022/06/29 08:44:29;;;;;;;;;;;34.60;52.20;;;;;;4652100;30;20180;-84
2022/06/29 08:46:59;;;;;;;5.70;2.80;;;33.90;51.50;;;;;;4651691;30;20003;-83
2022/06/29 08:49:32;;;;;;;7.38;2.60;;;34.20;51.20;;;;;;4666878;30;20347;-86
2022/06/29 08:51:58;;;;;;;;;;;34.00;50.40;;;;;;4670898;25;20494;-85
2022/06/29 08:54:27;;;;;;;5.40;2.90;;;34.10;50.30;;;;;;4657281;25;20126;-85
2022/06/29 08:56:58;;;;;;;15.88;2.95;;;34.30;50.70;;;;;;4667146;30;20038;-84
2022/06/29 08:59:26;;;;;;;8.10;2.70;;;34.40;50.60;;;;;;4651589;30;20423;-84
2022/06/29 09:01:52;;;;;;;6.70;3.22;;;34.50;49.50;;;;;;4651855;30;20030;-82
2022/06/29 09:04:18;;;;;;;5.45;2.72;;;34.50;49.00;;;;;;4666969;30;20034;-86
2022/06/29 09:06:46;;;;;;;7.10;3.58;;;34.60;48.60;;;;;;4651290;30;20050;-85
2022/06/29 09:09:25;;;;;;;8.18;3.08;;;34.70;48.50;;;;;;4651510;30;20112;-85
2022/06/29 09:12:07;;;;;;;6.05;3.60;;;34.90;48.10;;;;;;4651461;30;20609;-84
2022/06/29 09:14:45;;;;;;;6.03;2.90;;;33.40;47.40;;;;;;4666831;30;20530;-86
2022/06/29 09:17:17;;;;;;;6.72;2.42;;;35.20;49.20;;;;;;4666580;30;20668;-86
2022/06/29 09:19:56;;;;;;;6.60;2.53;;;35.20;47.60;;;;;;4667109;30;20080;-86
2022/06/29 09:22:38;;;;;;;6.90;2.63;;;35.50;47.60;;;;;;4666292;30;20114;-84
2022/06/29 09:25:39;;;;;;;7.60;2.95;;;35.60;46.70;;;;;;4651091;30;20661;-86
2022/06/29 09:28:31;;;;;;;7.90;2.60;;;36.20;45.70;;;;;;4651078;30;20057;-83
2022/06/29 09:31:07;;;;;;;6.63;2.17;;;37.00;46.10;;;;;;4581527;31;20080;-85
2022/06/29 09:33:34;;;;;;;6.45;2.30;;;35.80;45.60;;;;;;4569144;31;20093;-83
2022/06/29 09:36:13;;;;;;;5.60;2.50;;;36.00;45.40;;;;;;4582902;31;20048;-85
2022/06/29 09:38:40;;;;;;;10.15;3.00;;;36.10;44.80;;;;;;4583354;31;20044;-86
2022/06/29 09:41:12;;;;;;;6.57;2.63;;;36.40;45.30;;;;;;4582813;31;20043;-85
2022/06/29 09:44:00;;;;;;;5.88;2.20;;;36.50;45.10;;;;;;4583114;31;20040;-84
2022/06/29 09:46:29;;;;;;;6.95;2.95;;;36.70;44.80;;;;;;4583936;31;20588;-85
2022/06/29 09:48:55;;;;;;;7.47;2.83;;;36.80;44.50;;;;;;4583543;31;20139;-85
2022/06/29 09:51:32;;;;;;;6.85;2.75;;;36.60;44.40;;;;;;4583934;31;20482;-85
2022/06/29 09:54:18;;;;;;;8.38;4.32;;;36.30;44.40;;;;;;4567771;31;20471;-86
2022/06/29 09:56:49;;;;;;;5.10;2.40;;;36.20;44.40;;;;;;4582783;31;20115;-85
2022/06/29 10:02:34;;;;;;;13.07;3.93;;;36.10;44.60;;;;;;4582636;31;20044;-87
2022/06/29 10:05:04;;;;;;;10.65;2.75;;;36.00;43.90;;;;;;4582854;31;20607;-85
2022/06/29 10:07:32;;;;;;;8.07;3.20;;;36.20;43.50;;;;;;4589736;30;20519;-83
2022/06/29 10:09:59;;;;;;;6.90;2.92;;;36.00;44.70;;;;;;4651140;30;20378;-85
2022/06/29 10:15:31;;;;;;;7.75;3.03;;;36.30;45.70;;;;;;4652323;30;20244;-85
2022/06/29 10:18:16;;;;;;;8.30;2.92;;;36.60;45.60;;;;;;4652521;30;20090;-85
2022/06/29 10:20:48;;;;;;;8.02;3.20;;;36.90;45.50;;;;;;4651120;30;20578;-86
2022/06/29 10:23:49;;;;;;;6.75;3.00;;;36.90;43.70;;;;;;4665454;30;20043;-86
2022/06/29 10:29:08;;;;;;;12.88;3.00;;;34.40;42.80;;;;;;4653153;30;20069;-85
2022/06/29 10:37:28;;;;;;;9.52;3.97;;;38.30;42.90;;;;;;4652359;30;19985;-84
2022/06/29 10:40:16;;;;;;;7.60;3.20;;;38.00;41.90;;;;;;4650494;30;20026;-86
2022/06/29 10:46:11;;;;;;;12.88;3.53;;;38.30;42.40;;;;;;4651780;30;20049;-86
2022/06/29 10:51:58;;;;;;;7.18;2.97;;;38.50;41.20;;;;;;4688529;25;20946;-86
2022/06/29 10:54:30;;;;;;;8.75;2.95;;;38.50;41.80;;;;;;4689077;25;20061;-86
2022/06/29 10:57:08;;;;;;;5.93;2.65;;;38.60;42.30;;;;;;4686153;30;20037;-86
2022/06/29 11:02:23;;;;;;;5.78;2.65;;;38.20;42.20;;;;;;4673551;25;20423;-86
2022/06/29 11:04:49;;;;;;;10.07;2.85;;;38.30;42.70;;;;;;4633354;30;20142;-84
2022/06/29 11:13:00;;;;;;;8.00;2.53;;;38.50;41.90;;;;;;4635017;30;20093;-83
2022/06/29 11:23:26;;;;;;;10.82;3.75;;;39.10;40.40;;;;;;4812037;25;20077;-83
2022/06/29 11:25:54;;;;;;;8.10;3.20;;;38.50;41.10;;;;;;4664478;30;20050;-83
2022/06/29 11:28:37;;;;;;;8.70;3.47;;;39.70;41.00;;;;;;4651582;30;20076;-85
2022/06/29 11:31:05;;;;;;;9.98;2.92;;;40.20;41.50;;;;;;4665267;30;20128;-84
2022/06/29 11:36:11;;;;;;;7.80;2.55;;;40.00;38.00;;;;;;3797222;25;20363;-84
2022/06/29 11:38:42;;;;;;;12.25;3.20;;;40.30;37.90;;;;;;4652771;30;20042;-85
2022/06/29 11:44:30;;;;;;;8.85;2.53;;;40.50;39.20;;;;;;4668523;30;20044;-85
2022/06/29 11:46:56;;;;;;;6.50;3.03;;;40.80;40.00;;;;;;4652287;30;20042;-83
2022/06/29 11:49:36;;;;;;;7.32;3.10;;;41.40;39.20;;;;;;4667836;30;20109;-85
2022/06/29 11:52:04;;;;;;;7.30;2.67;;;41.70;37.90;;;;;;4652396;30;20037;-85
2022/06/29 11:54:44;;;;;;;7.55;2.75;;;41.60;37.70;;;;;;4651604;30;20030;-84
2022/06/29 11:57:17;;;;;;;9.93;3.60;;;41.60;37.00;;;;;;4652121;30;20057;-85
2022/06/29 12:00:19;;;;;;;13.18;3.30;;;41.40;37.70;;;;;;4666390;25;20049;-84
2022/06/29 12:02:47;;;;;;;6.75;2.58;;;42.10;38.00;;;;;;4669357;30;20034;-84
2022/06/29 12:05:13;;;;;;;6.80;2.50;;;42.10;38.50;;;;;;4669122;30;20150;-85
2022/06/29 12:07:38;;;;;;;10.50;3.97;;;42.30;39.90;;;;;;4669321;30;20772;-83
2022/06/29 12:10:04;;;;;;;9.63;3.00;;;42.10;37.30;;;;;;4685226;30;20137;-83
2022/06/29 12:12:30;;;;;;;9.20;3.10;;;42.40;37.70;;;;;;4685070;30;20099;-86
2022/06/29 12:14:56;;;;;;;10.30;3.08;;;42.50;37.60;;;;;;4684065;30;20695;-83
2022/06/29 12:17:22;;;;;;;8.98;2.78;;;42.10;37.30;;;;;;4669082;30;20297;-85
2022/06/29 12:19:48;;;;;;;9.43;2.78;;;42.50;37.40;;;;;;4669061;30;20348;-83
2022/06/29 12:22:13;;;;;;;8.63;2.90;;;42.40;37.40;;;;;;4669180;30;20029;-84
2022/06/29 12:24:39;;;;;;;9.70;3.28;;;42.70;37.10;;;;;;4684668;30;20106;-86
2022/06/29 12:27:14;;;;;;;8.50;3.00;;;42.20;37.80;;;;;;4684867;30;20052;-85
2022/06/29 12:29:40;;;;;;;9.95;2.75;;;42.50;37.50;;;;;;4669264;30;20062;-83
2022/06/29 12:32:18;;;;;;;9.70;3.38;;;42.60;37.20;;;;;;4684771;30;20664;-83
2022/06/29 12:34:50;;;;;;;8.25;3.15;;;40.60;35.80;;;;;;4684455;30;20025;-85
2022/06/29 12:37:21;;;;;;;7.38;2.97;;;42.40;38.50;;;;;;4669122;30;20026;-84
2022/06/29 12:40:05;;;;;;;7.63;3.25;;;42.50;38.00;;;;;;4685126;30;20120;-82
2022/06/29 12:42:41;;;;;;;9.82;3.35;;;43.90;38.40;;;;;;4670158;30;20041;-84
2022/06/29 12:45:07;;;;;;;13.38;3.58;;;43.10;37.70;;;;;;4696106;30;20275;-83
2022/06/29 12:47:33;;;;;;;16.20;2.90;;;42.90;36.80;;;;;;4690461;30;20029;-82
2022/06/29 12:50:03;;;;;;;13.07;4.10;;;43.20;36.60;;;;;;4685029;30;20029;-83
2022/06/29 12:52:29;;;;;;;9.25;2.85;;;43.50;36.40;;;;;;4684934;30;20361;-84
2022/06/29 12:54:55;;;;;;;8.70;3.08;;;43.50;35.80;;;;;;4690518;30;20029;-83
2022/06/29 12:57:30;;;;;;;9.23;4.03;;;43.70;35.70;;;;;;4697706;30;20244;-84
2022/06/29 12:59:56;;;;;;;10.63;3.35;;;45.10;36.60;;;;;;4677616;30;20904;-82
2022/06/29 13:02:31;;;;;;;12.80;3.03;;;42.80;36.50;;;;;;4681778;30;20049;-84
2022/06/29 13:05:07;;;;;;;7.68;2.80;;;42.40;36.70;;;;;;4670989;30;20326;-85
2022/06/29 13:07:37;;;;;;;9.38;4.03;;;41.30;37.30;;;;;;4671854;30;20038;-83
2022/06/29 13:10:07;;;;;;;12.77;3.10;;;40.80;37.80;;;;;;4669849;30;20045;-83
2022/06/29 13:12:34;;;;;;;7.47;3.28;;;40.80;38.10;;;;;;4670012;30;20054;-83
2022/06/29 13:15:00;;;;;;;12.68;4.18;;;41.30;38.10;;;;;;4669876;30;20337;-84
2022/06/29 13:17:26;;;;;;;9.30;4.03;;;41.60;38.00;;;;;;4670716;30;20117;-84
2022/06/29 13:19:52;;;;;;;14.15;3.40;;;41.90;37.90;;;;;;4670897;30;20050;-82
2022/06/29 13:22:19;;;;;;;7.18;2.95;;;42.20;37.60;;;;;;4669553;30;20346;-82
2022/06/29 13:24:47;;;;;;;9.70;4.10;;;42.40;36.70;;;;;;4669461;30;20081;-82
2022/06/29 13:27:30;;;;;;;12.20;3.05;;;42.30;37.30;;;;;;4669409;30;20414;-84
2022/06/29 13:30:12;;;;;;;8.52;3.10;;;41.70;38.40;;;;;;4669200;30;20339;-85
2022/06/29 13:32:38;;;;;;;11.10;3.97;;;;;;;;;;4666908;30;20050;-83
2022/06/29 13:35:11;;;;;;;10.60;3.65;;;39.90;38.80;;;;;;4667909;30;20066;-85
2022/06/29 13:37:43;;;;;;;8.18;3.13;;;39.30;40.10;;;;;;4667504;30;20134;-86
2022/06/29 13:40:18;;;;;;;11.27;3.75;;;38.50;41.00;;;;;;4667320;30;20041;-86
2022/06/29 13:42:52;;;;;;;7.25;3.28;;;38.10;41.50;;;;;;4667469;30;20151;-84
2022/06/29 13:45:17;;;;;;;9.52;3.45;;;38.00;42.40;;;;;;4667454;30;20394;-84
2022/06/29 13:47:43;;;;;;;11.20;3.75;;;39.00;42.70;;;;;;4673107;25;20451;-83
2022/06/29 13:50:18;;;;;;;13.27;3.85;;;37.30;42.50;;;;;;4654609;30;20056;-85
2022/06/29 13:53:00;;;;;;;9.68;3.42;;;37.30;42.70;;;;;;4654535;30;20406;-85
2022/06/29 13:55:32;;;;;;;13.00;3.90;;;37.20;43.40;;;;;;4654394;30;20029;-85
2022/06/29 13:57:57;;;;;;;10.98;3.40;;;37.20;43.00;;;;;;4670121;30;20510;-84
2022/06/29 14:00:23;;;;;;;10.73;3.30;;;37.70;42.50;;;;;;4669913;30;20312;-85
2022/06/29 14:02:49;;;;;;;12.77;3.53;;;38.30;41.70;;;;;;4653683;30;20542;-83
2022/06/29 14:05:15;;;;;;;10.95;3.55;;;38.80;41.80;;;;;;4669820;30;20030;-81
2022/06/29 14:07:45;;;;;;;9.98;3.25;;;39.40;41.00;;;;;;4654123;30;20048;-85
2022/06/29 14:10:13;;;;;;;10.68;3.55;;;39.60;40.60;;;;;;4653847;30;20034;-81
2022/06/29 14:12:48;;;;;;;8.02;3.50;;;40.30;40.80;;;;;;4654304;30;20538;-85